Time;durP1;ratioP1;P1;durP2;ratioP2;P2;SDS_P1;SDS_P2;PMS_P1;PMS_P2;Temp;Humidity;BMP_temperature;BMP_pressure;BME280_temperature;BME280_humidity;BME280_pressure;Samples;Min_cycle;Max_cycle;Signal;HPM_P1;HPM_P2
2021/12/22 09:01:44;;;;;;;13.57;4.27;;;-1.10;99.90;;;;;;4739160;23;20249;-73
2021/12/22 09:04:11;;;;;;;9.27;4.47;;;-0.90;99.90;;;;;;4908627;29;20222;-78
2021/12/22 09:06:38;;;;;;;11.93;4.83;;;-0.80;99.90;;;;;;4916655;29;20576;-76
2021/12/22 09:09:07;;;;;;;8.57;4.37;;;-0.80;99.90;;;;;;4916913;29;20234;-78
2021/12/22 09:11:34;;;;;;;13.63;5.30;;;-0.70;99.90;;;;;;4914842;29;20209;-76
2021/12/22 09:14:03;;;;;;;11.63;4.43;;;-0.60;99.90;;;;;;4915654;29;20205;-86
2021/12/22 09:16:30;;;;;;;10.73;4.80;;;-0.50;99.90;;;;;;4917015;29;20668;-76
2021/12/22 09:18:58;;;;;;;17.13;5.10;;;-0.40;99.90;;;;;;4897524;29;20234;-73
2021/12/22 09:21:25;;;;;;;9.27;4.63;;;-0.40;99.90;;;;;;4906796;29;20202;-84
2021/12/22 09:23:52;;;;;;;10.40;4.13;;;-0.30;99.90;;;;;;4916135;29;20576;-76
2021/12/22 09:26:19;;;;;;;10.57;4.43;;;-0.20;99.90;;;;;;4916350;29;20241;-79
2021/12/22 09:28:46;;;;;;;5.17;3.23;;;-0.20;99.90;;;;;;4912433;29;20229;-78
2021/12/22 09:31:13;;;;;;;9.47;4.00;;;0.00;99.90;;;;;;4916835;29;20205;-77
2021/12/22 09:33:40;;;;;;;8.77;4.00;;;0.20;99.90;;;;;;4916460;29;20216;-75
2021/12/22 09:36:11;;;;;;;13.67;3.47;;;0.20;99.90;;;;;;4897495;29;20555;-77
2021/12/22 09:38:38;;;;;;;10.97;4.67;;;0.30;99.90;;;;;;4901367;29;20226;-77
2021/12/22 09:41:07;;;;;;;12.40;4.47;;;0.40;99.90;;;;;;4916584;29;20295;-76
2021/12/22 09:43:34;;;;;;;8.93;4.57;;;0.60;99.90;;;;;;4916444;29;20205;-77
2021/12/22 09:46:05;;;;;;;8.80;3.53;;;0.70;99.90;;;;;;4916487;29;20260;-78
2021/12/22 09:48:47;;;;;;;7.63;4.07;;;0.80;99.90;;;;;;4915762;29;20307;-71
2021/12/22 09:54:01;;;;;;;12.67;3.73;;;1.20;99.90;;;;;;4899013;29;20216;-77
2021/12/22 09:56:28;;;;;;;6.47;3.60;;;1.30;99.90;;;;;;4897312;29;20214;-76
2021/12/22 09:58:55;;;;;;;5.73;3.40;;;1.60;99.90;;;;;;4903595;29;20722;-77
2021/12/22 10:01:25;;;;;;;7.33;3.87;;;1.80;99.90;;;;;;4915679;29;20228;-76
2021/12/22 10:03:52;;;;;;;8.03;4.10;;;1.70;99.90;;;;;;4915896;29;20684;-76
2021/12/22 10:06:21;;;;;;;7.03;3.53;;;1.60;99.90;;;;;;4915786;29;20251;-76
2021/12/22 10:08:53;;;;;;;7.50;3.57;;;1.60;99.90;;;;;;4915395;29;20716;-77
2021/12/22 10:11:20;;;;;;;5.43;3.83;;;1.60;99.90;;;;;;4916023;29;20205;-77
2021/12/22 10:13:47;;;;;;;8.17;3.83;;;1.70;99.90;;;;;;4916028;29;20210;-76
2021/12/22 10:16:16;;;;;;;9.13;3.97;;;1.70;99.90;;;;;;4914123;29;20216;-76
2021/12/22 10:18:44;;;;;;;6.00;3.17;;;1.30;99.90;;;;;;4919127;29;20708;-77
2021/12/22 10:21:12;;;;;;;6.57;3.23;;;1.20;99.90;;;;;;4919450;29;20213;-77
2021/12/22 10:23:45;;;;;;;9.20;3.77;;;1.20;99.90;;;;;;4919267;29;20213;-77
2021/12/22 10:26:16;;;;;;;5.07;3.30;;;1.30;99.90;;;;;;4919137;29;20280;-75
2021/12/22 10:28:51;;;;;;;6.33;3.80;;;1.60;99.90;;;;;;4919505;29;20229;-77
2021/12/22 10:31:19;;;;;;;9.57;3.87;;;1.50;99.90;;;;;;4912720;29;20205;-77
2021/12/22 10:33:48;;;;;;;5.53;3.40;;;1.70;99.90;;;;;;4900320;29;20218;-76
2021/12/22 10:36:17;;;;;;;6.13;3.23;;;1.60;99.90;;;;;;4900434;29;20214;-76
2021/12/22 10:38:51;;;;;;;6.80;3.57;;;1.60;99.90;;;;;;4904759;29;20252;-76
2021/12/22 10:41:20;;;;;;;5.83;3.03;;;1.50;99.90;;;;;;4919582;29;20672;-78
2021/12/22 10:43:49;;;;;;;6.00;3.63;;;1.50;99.90;;;;;;4919114;29;20213;-76
2021/12/22 10:46:26;;;;;;;6.60;3.20;;;1.40;99.90;;;;;;4919492;29;20269;-78
2021/12/22 10:49:17;;;;;;;5.27;2.93;;;1.30;99.90;;;;;;4918906;29;20595;-76
2021/12/22 10:51:46;;;;;;;4.80;3.00;;;1.20;99.90;;;;;;4919562;29;20592;-75
2021/12/22 10:54:18;;;;;;;8.43;3.30;;;1.20;99.90;;;;;;4918683;29;20214;-71
2021/12/22 10:56:47;;;;;;;5.50;2.80;;;1.30;99.90;;;;;;4900032;29;20211;-74
2021/12/22 10:59:16;;;;;;;9.33;3.47;;;1.40;99.90;;;;;;4907820;29;20703;-77
2021/12/22 11:01:59;;;;;;;7.43;3.67;;;1.50;99.90;;;;;;4918830;29;20228;-77
2021/12/22 11:04:32;;;;;;;6.27;3.37;;;1.50;99.90;;;;;;4918689;29;20233;-77
2021/12/22 11:07:08;;;;;;;9.03;3.33;;;1.80;99.90;;;;;;4918338;29;20242;-77
2021/12/22 11:09:37;;;;;;;7.23;3.67;;;1.90;99.90;;;;;;4918294;29;20233;-76
2021/12/22 11:12:06;;;;;;;9.87;4.30;;;2.00;99.90;;;;;;4915531;29;20297;-77
2021/12/22 11:14:36;;;;;;;5.90;3.37;;;2.00;99.90;;;;;;4906367;29;20229;-76
2021/12/22 11:17:08;;;;;;;5.50;3.40;;;2.20;99.90;;;;;;4918648;29;20213;-76
2021/12/22 11:19:37;;;;;;;10.13;3.23;;;2.40;99.90;;;;;;4918261;29;20277;-77
2021/12/22 11:22:10;;;;;;;9.27;3.70;;;2.50;99.90;;;;;;4918901;29;20687;-77
2021/12/22 11:24:44;;;;;;;9.07;3.10;;;2.30;99.90;;;;;;4918990;29;20796;-77
2021/12/22 11:27:14;;;;;;;7.17;3.43;;;2.40;99.90;;;;;;4918375;29;20237;-77
2021/12/22 11:29:43;;;;;;;9.53;4.07;;;2.60;99.90;;;;;;4918000;29;20237;-77
2021/12/22 11:32:13;;;;;;;8.90;3.17;;;2.50;99.90;;;;;;4917043;29;20209;-78
2021/12/22 11:34:40;;;;;;;10.03;3.40;;;2.50;99.90;;;;;;4917603;29;20210;-76
2021/12/22 11:37:10;;;;;;;7.90;3.17;;;2.40;99.90;;;;;;4917175;29;20225;-78
2021/12/22 11:39:38;;;;;;;6.43;3.40;;;2.40;99.90;;;;;;4917636;29;20237;-78
2021/12/22 11:42:09;;;;;;;4.73;3.40;;;2.30;99.90;;;;;;4917180;29;20206;-78
2021/12/22 11:44:36;;;;;;;5.53;3.30;;;2.50;99.90;;;;;;4913332;29;20677;-77
2021/12/22 11:47:07;;;;;;;6.53;3.47;;;2.50;99.90;;;;;;4898946;29;20242;-78
2021/12/22 11:49:37;;;;;;;6.87;3.27;;;2.70;99.90;;;;;;4917473;29;20236;-79
2021/12/22 11:52:31;;;;;;;6.90;3.27;;;2.50;99.90;;;;;;4917862;29;20205;-78
2021/12/22 11:55:11;;;;;;;6.73;3.07;;;2.50;99.90;;;;;;4914680;29;20244;-77
2021/12/22 11:57:40;;;;;;;7.33;3.10;;;2.60;99.90;;;;;;4914669;29;20209;-78
2021/12/22 12:00:29;;;;;;;6.43;3.20;;;2.70;99.90;;;;;;4916878;29;20216;-80
2021/12/22 12:02:57;;;;;;;7.23;2.90;;;2.70;99.90;;;;;;4917252;29;20232;-79
2021/12/22 12:05:26;;;;;;;9.33;3.87;;;2.80;99.90;;;;;;4917611;29;20237;-77
2021/12/22 12:07:55;;;;;;;6.47;3.70;;;2.70;99.90;;;;;;4917018;29;20233;-78
2021/12/22 12:10:45;;;;;;;7.50;3.70;;;2.70;99.90;;;;;;4917339;29;20232;-79
2021/12/22 12:13:45;;;;;;;7.97;3.87;;;2.60;99.90;;;;;;4910362;29;20205;-79
2021/12/22 12:22:10;;;;;;;6.93;3.60;;;2.70;99.90;;;;;;4908616;29;20852;-73
2021/12/22 12:24:44;;;;;;;9.40;4.23;;;2.70;99.90;;;;;;4905850;29;20221;-72
2021/12/22 12:27:32;;;;;;;5.77;3.50;;;2.80;99.90;;;;;;4907014;29;20604;-72
2021/12/22 12:30:01;;;;;;;9.63;3.47;;;2.90;99.90;;;;;;4913638;29;20212;-79
2021/12/22 12:33:02;;;;;;;6.70;3.50;;;2.90;99.90;;;;;;4910661;29;20686;-72
2021/12/22 12:35:32;;;;;;;7.67;3.47;;;2.90;99.90;;;;;;4910882;29;20220;-72
2021/12/22 12:38:01;;;;;;;5.00;3.27;;;2.80;99.90;;;;;;4910879;29;20750;-73
2021/12/22 12:41:02;;;;;;;10.20;3.43;;;2.80;99.90;;;;;;4902598;29;20216;-76
2021/12/22 12:44:04;;;;;;;14.43;6.70;;;2.80;99.90;;;;;;4909479;29;20205;-80
2021/12/22 12:46:37;;;;;;;7.47;3.87;;;2.60;99.90;;;;;;4904943;29;20240;-78
2021/12/22 12:49:34;;;;;;;10.50;4.13;;;2.70;99.90;;;;;;4906462;29;20230;-78
2021/12/22 12:52:06;;;;;;;7.67;4.00;;;2.60;99.90;;;;;;4903279;29;20222;-79
2021/12/22 12:54:39;;;;;;;10.50;3.33;;;2.70;99.90;;;;;;4908997;29;20229;-75
2021/12/22 12:57:25;;;;;;;6.17;3.67;;;2.70;99.90;;;;;;4908856;29;20210;-72
2021/12/22 12:59:54;;;;;;;7.37;3.53;;;2.70;99.90;;;;;;4906646;29;20258;-87
2021/12/22 13:02:25;;;;;;;7.57;3.30;;;2.70;99.90;;;;;;4902500;29;20225;-72
2021/12/22 13:05:00;;;;;;;11.07;4.43;;;2.60;99.90;;;;;;4908391;29;20206;-85
2021/12/22 13:07:28;;;;;;;9.43;4.57;;;2.60;99.90;;;;;;4912712;29;20243;-80
2021/12/22 13:10:01;;;;;;;8.77;3.80;;;2.50;99.90;;;;;;4911160;29;20202;-78
2021/12/22 13:12:46;;;;;;;6.53;3.63;;;2.50;99.90;;;;;;4911623;29;20209;-75
2021/12/22 13:18:04;;;;;;;7.17;3.30;;;2.50;99.90;;;;;;4908508;29;20321;-76
2021/12/22 13:20:33;;;;;;;6.67;3.67;;;2.50;99.90;;;;;;4909118;29;20202;-75
2021/12/22 13:23:02;;;;;;;6.43;3.47;;;2.60;99.90;;;;;;4906945;29;20221;-76
2021/12/22 13:25:31;;;;;;;9.30;4.00;;;2.80;99.90;;;;;;4901336;29;20221;-77
2021/12/22 13:28:00;;;;;;;11.23;3.97;;;2.80;99.90;;;;;;4913481;29;20241;-77
2021/12/22 13:30:29;;;;;;;8.27;3.70;;;2.80;99.90;;;;;;4907881;29;20221;-71
2021/12/22 13:32:57;;;;;;;11.57;4.30;;;2.60;99.90;;;;;;4911361;29;20209;-74
2021/12/22 13:35:32;;;;;;;10.17;3.70;;;2.50;99.90;;;;;;4903201;29;20237;-71
2021/12/22 13:37:59;;;;;;;6.63;3.57;;;2.50;99.90;;;;;;4906019;29;20233;-73
2021/12/22 13:40:40;;;;;;;9.53;3.77;;;2.50;99.90;;;;;;4902625;29;20203;-75
2021/12/22 13:43:08;;;;;;;6.50;4.07;;;2.50;99.90;;;;;;4903174;29;20221;-70
2021/12/22 13:45:35;;;;;;;8.30;3.87;;;2.50;99.90;;;;;;4907925;29;20220;-71
2021/12/22 13:48:04;;;;;;;7.90;3.77;;;2.60;99.90;;;;;;4903755;29;20229;-83
2021/12/22 13:50:32;;;;;;;8.77;4.13;;;2.70;99.90;;;;;;4914051;29;20265;-75
2021/12/22 13:52:59;;;;;;;7.27;3.90;;;2.70;99.90;;;;;;4914735;29;20819;-75
2021/12/22 13:55:26;;;;;;;7.20;3.73;;;2.90;99.90;;;;;;4911041;29;20214;-76
2021/12/22 13:57:53;;;;;;;7.50;3.70;;;2.80;99.90;;;;;;4909275;29;20743;-84
2021/12/22 14:00:20;;;;;;;12.33;4.33;;;2.80;99.90;;;;;;4913460;29;20227;-75
2021/12/22 14:02:48;;;;;;;8.27;3.67;;;2.90;99.90;;;;;;4912593;29;20293;-85
2021/12/22 14:05:17;;;;;;;8.37;3.87;;;2.90;99.90;;;;;;4916171;29;20201;-83
2021/12/22 14:07:46;;;;;;;6.70;3.93;;;2.90;99.90;;;;;;4915438;29;20245;-70
2021/12/22 14:10:15;;;;;;;6.23;3.73;;;2.90;99.90;;;;;;4912280;29;20214;-78
2021/12/22 14:12:44;;;;;;;6.80;3.93;;;3.00;99.90;;;;;;4920793;29;20210;-73
2021/12/22 14:15:12;;;;;;;9.07;3.80;;;3.10;99.90;;;;;;4912524;29;20217;-83
2021/12/22 14:17:42;;;;;;;6.53;3.37;;;3.00;99.90;;;;;;4912119;29;20284;-81
2021/12/22 14:20:16;;;;;;;10.47;4.20;;;3.00;99.90;;;;;;4908995;29;20209;-82
2021/12/22 14:22:47;;;;;;;7.40;4.00;;;2.90;99.90;;;;;;4912910;29;20300;-82
2021/12/22 14:25:20;;;;;;;6.83;3.53;;;2.90;99.90;;;;;;4918509;29;20265;-70
2021/12/22 14:27:50;;;;;;;7.40;3.30;;;2.80;99.90;;;;;;4917215;29;20744;-83
2021/12/22 14:30:29;;;;;;;8.53;3.60;;;2.70;99.90;;;;;;4919120;29;20212;-70
2021/12/22 14:32:58;;;;;;;7.13;3.57;;;2.60;99.90;;;;;;4918443;29;20236;-80
2021/12/22 14:35:27;;;;;;;9.23;4.53;;;2.50;99.90;;;;;;4918971;29;20216;-76
2021/12/22 14:38:00;;;;;;;10.03;4.77;;;2.50;99.90;;;;;;4919188;29;20708;-82
2021/12/22 14:40:29;;;;;;;7.87;4.43;;;2.60;99.90;;;;;;4920272;29;20210;-74
2021/12/22 14:42:58;;;;;;;8.77;4.27;;;2.60;99.90;;;;;;4919736;29;20217;-84
2021/12/22 14:45:30;;;;;;;7.13;4.13;;;2.50;99.90;;;;;;4919960;29;20218;-84
2021/12/22 14:48:06;;;;;;;8.80;4.30;;;2.40;99.90;;;;;;4919145;29;20237;-80
2021/12/22 14:50:33;;;;;;;9.80;4.90;;;2.30;99.90;;;;;;4919336;29;20209;-72
2021/12/22 14:53:03;;;;;;;10.10;4.37;;;2.30;99.90;;;;;;4902285;29;20214;-80
2021/12/22 14:55:46;;;;;;;6.10;3.80;;;2.20;99.90;;;;;;4907160;29;20214;-80
2021/12/22 14:58:15;;;;;;;8.37;3.87;;;2.20;99.90;;;;;;4919577;29;20244;-71
2021/12/22 15:00:45;;;;;;;6.47;3.60;;;2.10;99.90;;;;;;4906267;29;20218;-83
2021/12/22 15:03:13;;;;;;;9.70;4.43;;;2.10;99.90;;;;;;4899971;29;20207;-80
2021/12/22 15:05:43;;;;;;;8.80;3.57;;;2.00;99.90;;;;;;4903977;29;20217;-93
2021/12/22 15:08:11;;;;;;;10.00;4.37;;;2.00;99.90;;;;;;4916530;29;20328;-89
2021/12/22 15:10:38;;;;;;;11.13;4.43;;;1.90;99.90;;;;;;4925183;29;20216;-93
2021/12/22 15:13:05;;;;;;;8.17;4.13;;;1.90;99.90;;;;;;4926748;29;20546;-93
2021/12/22 15:15:32;;;;;;;10.67;3.70;;;1.80;99.90;;;;;;4926572;29;20213;-90
2021/12/22 15:17:59;;;;;;;7.80;3.57;;;1.80;99.90;;;;;;4926730;29;20239;-84
2021/12/22 15:20:26;;;;;;;9.63;4.10;;;1.80;99.90;;;;;;4928637;29;20214;-93
2021/12/22 15:22:52;;;;;;;7.07;3.77;;;1.80;99.90;;;;;;4927680;29;20216;-93
2021/12/22 15:25:21;;;;;;;7.47;4.00;;;1.70;99.90;;;;;;4928531;29;20209;-76
2021/12/22 15:27:48;;;;;;;9.73;4.43;;;1.60;99.90;;;;;;4924117;29;20241;-79
2021/12/22 15:30:15;;;;;;;7.43;4.17;;;1.60;99.90;;;;;;4926768;29;20219;-92
2021/12/22 15:32:41;;;;;;;9.60;4.67;;;1.60;99.90;;;;;;4920003;29;20210;-92
2021/12/22 15:35:09;;;;;;;10.93;5.20;;;1.50;99.90;;;;;;4919603;29;20220;-78
2021/12/22 15:37:36;;;;;;;9.67;4.77;;;1.60;99.90;;;;;;4911217;29;20214;-93
2021/12/22 15:40:05;;;;;;;15.80;4.67;;;1.80;99.90;;;;;;4919584;29;20220;-79
2021/12/22 15:42:33;;;;;;;7.97;3.50;;;1.90;99.90;;;;;;4919069;29;20221;-93
2021/12/22 15:45:01;;;;;;;8.13;4.43;;;1.80;99.90;;;;;;4918765;29;20232;-91
2021/12/22 15:47:28;;;;;;;9.27;4.40;;;1.80;99.90;;;;;;4921639;29;20324;-92
2021/12/22 15:49:55;;;;;;;8.87;3.80;;;1.70;99.90;;;;;;4922066;29;20212;-74
2021/12/22 15:52:21;;;;;;;8.93;4.17;;;1.70;99.90;;;;;;4919810;29;20690;-91
2021/12/22 15:54:49;;;;;;;7.13;3.87;;;1.70;99.90;;;;;;4918922;29;20206;-74
2021/12/22 15:57:16;;;;;;;8.73;3.83;;;1.70;99.90;;;;;;4919781;29;20217;-89
2021/12/22 15:59:44;;;;;;;10.07;4.10;;;1.70;99.90;;;;;;4912968;29;20256;-85
2021/12/22 16:02:11;;;;;;;9.73;3.50;;;1.60;99.90;;;;;;4914916;29;20286;-92
2021/12/22 16:04:38;;;;;;;6.77;3.60;;;1.50;99.90;;;;;;4912770;29;20221;-71
2021/12/22 16:07:05;;;;;;;11.33;4.87;;;1.50;99.90;;;;;;4911753;29;20701;-93
2021/12/22 16:09:32;;;;;;;11.47;4.43;;;1.40;99.90;;;;;;4924849;29;20244;-94
2021/12/22 16:11:59;;;;;;;6.90;3.87;;;1.40;99.90;;;;;;4923416;29;20312;-84
2021/12/22 16:14:25;;;;;;;7.57;3.37;;;1.30;99.90;;;;;;4922537;29;20210;-75
2021/12/22 16:16:53;;;;;;;8.83;4.37;;;1.30;99.90;;;;;;4921517;29;20220;-93
2021/12/22 16:19:20;;;;;;;8.23;4.00;;;1.20;99.90;;;;;;4922360;29;20316;-73
2021/12/22 16:21:47;;;;;;;10.70;4.33;;;1.20;99.90;;;;;;4921243;29;20252;-90
2021/12/22 16:24:14;;;;;;;7.77;3.60;;;1.30;99.90;;;;;;4920270;29;20683;-87
2021/12/22 16:26:41;;;;;;;13.17;4.87;;;1.30;99.90;;;;;;4926748;29;20209;-86
2021/12/22 16:29:08;;;;;;;9.43;4.20;;;1.20;99.90;;;;;;4924367;29;20233;-88
2021/12/22 16:31:35;;;;;;;9.87;5.50;;;1.10;99.90;;;;;;4920600;29;20712;-89
2021/12/22 16:34:03;;;;;;;11.53;5.80;;;1.00;99.90;;;;;;4919185;29;20213;-87
2021/12/22 16:36:31;;;;;;;11.70;5.13;;;1.10;99.90;;;;;;4918529;29;20209;-86
2021/12/22 16:38:57;;;;;;;9.47;4.97;;;1.10;99.90;;;;;;4917538;29;20225;-86
2021/12/22 16:41:26;;;;;;;9.20;4.40;;;1.10;99.90;;;;;;4917900;29;20214;-88
2021/12/22 16:43:53;;;;;;;8.73;3.97;;;1.10;99.90;;;;;;4917775;29;20304;-85
2021/12/22 16:46:19;;;;;;;12.30;5.00;;;1.10;99.90;;;;;;4924133;29;20219;-74
2021/12/22 16:48:46;;;;;;;12.40;4.30;;;1.10;99.90;;;;;;4929496;29;20247;-88
2021/12/22 16:51:16;;;;;;;8.77;4.63;;;1.20;99.90;;;;;;4918111;29;20231;-87
2021/12/22 16:53:44;;;;;;;9.27;4.53;;;1.10;99.90;;;;;;4917767;29;20209;-89
2021/12/22 16:56:11;;;;;;;10.60;4.80;;;1.00;99.90;;;;;;4917839;29;20296;-90
2021/12/22 16:58:38;;;;;;;7.83;4.40;;;0.90;99.90;;;;;;4917687;29;20259;-89
2021/12/22 17:01:05;;;;;;;10.40;4.63;;;1.00;99.90;;;;;;4917468;29;20221;-88
2021/12/22 17:03:32;;;;;;;10.87;3.70;;;0.90;99.90;;;;;;4917337;29;20302;-87
2021/12/22 17:05:59;;;;;;;11.57;4.53;;;0.90;99.90;;;;;;4901051;29;20405;-87
2021/12/22 17:08:27;;;;;;;13.23;4.33;;;0.90;99.90;;;;;;4911987;29;20245;-87
2021/12/22 17:10:54;;;;;;;7.53;4.60;;;1.00;99.90;;;;;;4917287;29;20205;-85
2021/12/22 17:13:22;;;;;;;7.50;4.27;;;1.00;99.90;;;;;;4917469;29;20205;-79
2021/12/22 17:15:49;;;;;;;13.13;4.30;;;1.00;99.90;;;;;;4915998;29;20210;-87
2021/12/22 17:18:16;;;;;;;10.80;4.03;;;1.10;99.90;;;;;;4916400;29;20229;-83
2021/12/22 17:20:43;;;;;;;8.67;3.83;;;1.00;99.90;;;;;;4920257;29;20661;-81
2021/12/22 17:23:11;;;;;;;9.43;4.20;;;1.00;99.90;;;;;;4917387;29;20202;-89
2021/12/22 17:25:40;;;;;;;7.13;4.27;;;1.00;99.90;;;;;;4917366;29;20209;-78
2021/12/22 17:28:07;;;;;;;7.90;4.20;;;1.00;99.90;;;;;;4917127;29;20336;-87
2021/12/22 17:30:34;;;;;;;15.13;5.10;;;1.10;99.90;;;;;;4916841;29;20205;-71
2021/12/22 17:33:01;;;;;;;11.90;6.20;;;1.20;99.90;;;;;;4914677;29;20216;-74
2021/12/22 17:35:29;;;;;;;9.90;4.87;;;1.30;99.90;;;;;;4910749;29;20285;-82
2021/12/22 17:37:56;;;;;;;9.00;5.23;;;1.40;99.90;;;;;;4915368;29;20727;-79
2021/12/22 17:40:23;;;;;;;8.43;4.30;;;1.40;99.90;;;;;;4915218;29;20236;-77
2021/12/22 17:42:51;;;;;;;11.33;4.73;;;1.40;99.90;;;;;;4915881;29;20244;-73
2021/12/22 17:45:20;;;;;;;9.67;4.90;;;1.30;99.90;;;;;;4915667;29;20313;-81
2021/12/22 17:47:48;;;;;;;9.67;4.97;;;1.30;99.90;;;;;;4915611;29;20241;-82
2021/12/22 17:50:15;;;;;;;11.03;5.17;;;1.30;99.90;;;;;;4916546;29;20214;-81
2021/12/22 17:52:42;;;;;;;9.20;4.73;;;1.30;99.90;;;;;;4916198;29;20217;-77
2021/12/22 17:55:10;;;;;;;7.80;4.43;;;1.20;99.90;;;;;;4916055;29;20206;-79
2021/12/22 17:57:38;;;;;;;12.70;5.47;;;1.20;99.90;;;;;;4916927;29;20209;-79
2021/12/22 18:00:09;;;;;;;12.33;4.90;;;1.20;99.90;;;;;;4915935;29;20220;-82
2021/12/22 18:02:36;;;;;;;12.20;5.67;;;1.20;99.90;;;;;;4914795;29;20221;-73
2021/12/22 18:05:03;;;;;;;7.87;5.00;;;1.30;99.90;;;;;;4913515;29;20209;-82
2021/12/22 18:07:30;;;;;;;11.40;5.23;;;1.30;99.90;;;;;;4913423;29;20238;-81
2021/12/22 18:09:57;;;;;;;12.47;5.60;;;1.40;99.90;;;;;;4914930;29;20201;-82
2021/12/22 18:12:25;;;;;;;10.30;5.03;;;1.30;99.90;;;;;;4924534;29;20220;-82
2021/12/22 18:14:52;;;;;;;10.60;4.93;;;1.20;99.90;;;;;;4925920;29;20209;-81
2021/12/22 18:17:23;;;;;;;10.83;5.30;;;1.20;99.90;;;;;;4924157;29;20218;-79
2021/12/22 18:19:50;;;;;;;8.83;4.53;;;1.20;99.90;;;;;;4926056;29;20225;-83
2021/12/22 18:22:17;;;;;;;13.20;5.90;;;1.20;99.90;;;;;;4919532;29;20650;-81
2021/12/22 18:24:44;;;;;;;9.57;5.07;;;1.30;99.90;;;;;;4911791;29;20202;-80
2021/12/22 18:27:11;;;;;;;10.87;4.87;;;1.40;99.90;;;;;;4913875;29;20212;-82
2021/12/22 18:29:38;;;;;;;11.33;4.60;;;1.40;99.90;;;;;;4914283;29;20218;-81
2021/12/22 18:32:05;;;;;;;11.07;5.03;;;1.40;99.90;;;;;;4912645;29;20214;-81
2021/12/22 18:34:35;;;;;;;12.67;5.50;;;1.40;99.90;;;;;;4910301;29;20222;-80
2021/12/22 18:37:12;;;;;;;20.60;6.27;;;1.30;99.90;;;;;;4907010;29;20206;-81
2021/12/22 18:39:46;;;;;;;12.70;5.50;;;1.30;99.90;;;;;;4916730;29;20229;-82
2021/12/22 18:42:12;;;;;;;9.27;5.67;;;1.30;99.90;;;;;;4918897;29;20205;-83
2021/12/22 18:44:39;;;;;;;15.37;5.83;;;1.20;99.90;;;;;;4919527;29;20210;-82
2021/12/22 18:47:06;;;;;;;11.90;5.73;;;1.20;99.90;;;;;;4918913;29;20213;-82
2021/12/22 18:49:37;;;;;;;10.10;5.13;;;1.10;99.90;;;;;;4919157;29;20241;-81
2021/12/22 18:52:05;;;;;;;10.77;5.80;;;1.10;99.90;;;;;;4918226;29;20213;-82
2021/12/22 18:54:32;;;;;;;12.93;5.53;;;1.20;99.90;;;;;;4917269;29;20214;-81
2021/12/22 18:56:59;;;;;;;16.93;6.27;;;1.20;99.90;;;;;;4918404;29;20210;-82
2021/12/22 18:59:26;;;;;;;15.70;5.97;;;1.40;99.90;;;;;;4918051;29;20600;-82
2021/12/22 19:01:53;;;;;;;13.73;6.17;;;1.40;99.90;;;;;;4917535;29;20216;-82
2021/12/22 19:04:20;;;;;;;12.40;5.43;;;1.30;99.90;;;;;;4918673;29;20215;-81
2021/12/22 19:06:49;;;;;;;12.33;5.30;;;1.40;99.90;;;;;;4914960;29;20206;-82
2021/12/22 19:09:16;;;;;;;15.97;5.67;;;1.60;99.90;;;;;;4917762;29;20244;-75
2021/12/22 19:11:43;;;;;;;15.80;5.07;;;1.80;99.90;;;;;;4918753;29;20209;-82
2021/12/22 19:14:10;;;;;;;11.57;5.67;;;1.70;99.90;;;;;;4918305;29;20213;-83
2021/12/22 19:16:37;;;;;;;12.00;5.70;;;1.80;99.90;;;;;;4917880;29;20210;-80
2021/12/22 19:19:05;;;;;;;12.30;4.90;;;1.90;99.90;;;;;;4917629;29;20226;-79
2021/12/22 19:21:32;;;;;;;8.07;4.50;;;1.80;99.90;;;;;;4918007;29;20292;-82
2021/12/22 19:24:01;;;;;;;13.80;5.47;;;1.80;99.90;;;;;;4915907;29;20208;-80
2021/12/22 19:26:28;;;;;;;9.67;4.97;;;1.70;99.90;;;;;;4917424;29;20207;-82
2021/12/22 19:28:55;;;;;;;12.47;5.80;;;1.80;99.90;;;;;;4914077;29;20244;-81
2021/12/22 19:31:22;;;;;;;15.73;6.37;;;1.80;99.90;;;;;;4917516;29;20213;-81
2021/12/22 19:33:50;;;;;;;10.40;5.60;;;1.80;99.90;;;;;;4914479;29;20209;-79
2021/12/22 19:36:17;;;;;;;12.67;5.47;;;1.80;99.90;;;;;;4916316;29;20202;-78
2021/12/22 19:38:43;;;;;;;12.10;5.23;;;1.80;99.90;;;;;;4917316;29;20232;-81
2021/12/22 19:41:12;;;;;;;10.20;5.37;;;1.70;99.90;;;;;;4915740;29;20208;-82
2021/12/22 19:43:44;;;;;;;10.23;5.23;;;1.70;99.90;;;;;;4917440;29;20202;-81
2021/12/22 19:46:11;;;;;;;13.23;5.03;;;1.60;99.90;;;;;;4915261;29;20202;-81
2021/12/22 19:48:37;;;;;;;12.53;5.37;;;1.50;99.90;;;;;;4916860;29;20247;-82
2021/12/22 19:51:04;;;;;;;10.47;4.90;;;1.50;99.90;;;;;;4916782;29;20198;-81
2021/12/22 19:53:31;;;;;;;9.87;4.83;;;1.50;99.90;;;;;;4916918;29;20217;-82
2021/12/22 19:55:58;;;;;;;13.63;5.47;;;1.50;99.90;;;;;;4913872;29;20210;-79
2021/12/22 19:58:27;;;;;;;8.27;5.17;;;1.50;99.90;;;;;;4917859;29;20225;-82
2021/12/22 20:00:54;;;;;;;12.83;5.43;;;1.50;99.90;;;;;;4919031;29;20209;-81
2021/12/22 20:03:21;;;;;;;12.97;5.70;;;1.50;99.90;;;;;;4917565;29;20292;-82
2021/12/22 20:05:48;;;;;;;13.23;6.27;;;1.40;99.90;;;;;;4912624;29;20220;-79
2021/12/22 20:08:15;;;;;;;16.17;7.27;;;1.50;99.90;;;;;;4917237;29;20239;-83
2021/12/22 20:10:43;;;;;;;18.53;5.93;;;1.50;99.90;;;;;;4917395;29;20210;-81
2021/12/22 20:13:11;;;;;;;10.77;5.30;;;1.50;99.90;;;;;;4914751;29;20210;-82
2021/12/22 20:15:40;;;;;;;13.83;7.03;;;1.40;99.90;;;;;;4912817;29;20202;-79
2021/12/22 20:18:07;;;;;;;16.80;6.20;;;1.30;99.90;;;;;;4916350;29;20229;-82
2021/12/22 20:20:34;;;;;;;13.13;6.07;;;1.30;99.90;;;;;;4917363;29;20213;-82
2021/12/22 20:23:01;;;;;;;11.50;5.30;;;1.30;99.90;;;;;;4917090;29;20210;-83
2021/12/22 20:25:28;;;;;;;15.10;5.23;;;1.30;99.90;;;;;;4916269;29;20216;-82
2021/12/22 20:27:56;;;;;;;9.77;5.37;;;1.30;99.90;;;;;;4917221;29;20237;-81
2021/12/22 20:30:26;;;;;;;13.07;4.87;;;1.30;99.90;;;;;;4901319;29;20202;-80
2021/12/22 20:32:55;;;;;;;7.37;4.30;;;1.20;99.90;;;;;;4898716;29;20217;-81
2021/12/22 20:35:23;;;;;;;14.87;5.43;;;1.20;99.90;;;;;;4912998;29;20546;-80
2021/12/22 20:37:50;;;;;;;9.57;5.53;;;1.30;99.90;;;;;;4916491;29;20236;-82
2021/12/22 20:40:20;;;;;;;11.57;5.97;;;1.30;99.90;;;;;;4904679;29;20654;-81
2021/12/22 20:42:47;;;;;;;11.43;5.97;;;1.20;99.90;;;;;;4898920;29;20218;-82
2021/12/22 20:45:18;;;;;;;12.37;5.93;;;1.20;99.90;;;;;;4905063;29;20202;-82
2021/12/22 20:47:45;;;;;;;12.53;6.50;;;1.00;99.90;;;;;;4904772;29;20689;-84
2021/12/22 20:50:14;;;;;;;16.60;6.93;;;0.90;99.90;;;;;;4912982;29;20270;-83
2021/12/22 20:52:41;;;;;;;14.70;6.70;;;0.80;99.90;;;;;;4913790;29;20641;-81
2021/12/22 20:55:10;;;;;;;13.70;6.83;;;0.40;99.90;;;;;;4910435;29;20219;-82
2021/12/22 20:57:38;;;;;;;13.20;6.70;;;0.40;99.90;;;;;;4912481;29;20214;-78
2021/12/22 21:00:09;;;;;;;15.70;7.67;;;0.50;99.90;;;;;;4911855;29;20245;-82
